Time;durP1;ratioP1;P1;durP2;ratioP2;P2;SDS_P1;SDS_P2;PMS_P1;PMS_P2;Temp;Humidity;BMP_temperature;BMP_pressure;BME280_temperature;BME280_humidity;BME280_pressure;Samples;Min_cycle;Max_cycle;Signal;HPM_P1;HPM_P2
2022/10/31 06:00:48;;;;;;;6.60;3.67;;;13.50;97.20;;;;;;1669767;29;20209;-71
2022/10/31 06:01:38;;;;;;;6.53;3.75;;;13.50;97.20;;;;;;1669664;29;20669;-72
2022/10/31 06:02:34;;;;;;;10.90;3.83;;;13.50;97.20;;;;;;1669671;29;20246;-71
2022/10/31 06:03:24;;;;;;;5.68;3.97;;;13.50;97.20;;;;;;1669717;29;20202;-72
2022/10/31 06:04:16;;;;;;;7.40;3.90;;;13.50;97.20;;;;;;1669702;29;20206;-72
2022/10/31 06:05:07;;;;;;;4.22;3.70;;;13.50;97.20;;;;;;1669783;29;20222;-71
2022/10/31 06:05:59;;;;;;;5.70;3.58;;;13.50;97.20;;;;;;1669369;29;20241;-72
2022/10/31 06:06:50;;;;;;;5.07;3.80;;;13.50;97.20;;;;;;1669574;29;20248;-71
2022/10/31 06:07:42;;;;;;;6.53;4.00;;;13.50;97.20;;;;;;1669628;29;20217;-71
2022/10/31 06:08:32;;;;;;;6.30;3.92;;;13.50;97.20;;;;;;1669604;29;20240;-71
2022/10/31 06:09:24;;;;;;;6.70;3.77;;;13.60;97.20;;;;;;1669597;29;20213;-71
2022/10/31 06:10:15;;;;;;;6.75;4.20;;;13.60;97.20;;;;;;1671111;29;20211;-72
2022/10/31 06:11:07;;;;;;;4.57;3.80;;;13.60;97.20;;;;;;1675935;29;20261;-71
2022/10/31 06:11:58;;;;;;;6.78;4.82;;;13.60;97.20;;;;;;1675954;29;20214;-71
2022/10/31 06:12:50;;;;;;;6.57;3.83;;;13.50;97.20;;;;;;1676047;29;20208;-71
2022/10/31 06:13:40;;;;;;;5.15;3.67;;;13.60;97.20;;;;;;1669723;29;20651;-72
2022/10/31 06:14:32;;;;;;;5.63;3.90;;;13.60;97.20;;;;;;1669463;29;20226;-71
2022/10/31 06:15:23;;;;;;;7.35;4.35;;;13.60;97.20;;;;;;1668758;29;20245;-71
2022/10/31 06:16:16;;;;;;;9.67;4.00;;;13.60;97.20;;;;;;1669624;29;20210;-71
2022/10/31 06:17:07;;;;;;;5.50;3.75;;;13.50;97.20;;;;;;1669579;29;20962;-71
2022/10/31 06:18:00;;;;;;;5.20;4.13;;;13.60;97.20;;;;;;1669599;29;20658;-71
2022/10/31 06:18:51;;;;;;;9.10;4.20;;;13.60;97.20;;;;;;1669696;29;20214;-71
2022/10/31 06:19:42;;;;;;;5.00;3.80;;;13.50;97.20;;;;;;1669558;29;20234;-71
2022/10/31 06:20:33;;;;;;;5.05;4.00;;;13.50;97.20;;;;;;1669567;29;20709;-71
2022/10/31 06:21:25;;;;;;;5.07;3.90;;;13.60;97.20;;;;;;1668892;29;20555;-70
2022/10/31 06:22:16;;;;;;;6.45;3.80;;;13.60;97.20;;;;;;1669536;29;20202;-72
2022/10/31 06:23:06;;;;;;;8.30;4.17;;;13.60;97.20;;;;;;1669579;29;20214;-71
2022/10/31 06:23:58;;;;;;;7.23;4.07;;;13.60;97.20;;;;;;1669668;29;20214;-71
2022/10/31 06:24:49;;;;;;;5.28;4.30;;;13.60;97.20;;;;;;1669593;29;20274;-72
2022/10/31 06:25:41;;;;;;;11.33;5.00;;;13.50;97.20;;;;;;1669327;29;20249;-71
2022/10/31 06:26:31;;;;;;;4.68;3.90;;;13.50;97.20;;;;;;1669541;29;20573;-72
2022/10/31 06:27:24;;;;;;;8.30;4.23;;;13.60;97.20;;;;;;1669329;29;20654;-72
2022/10/31 06:28:14;;;;;;;7.35;3.83;;;13.60;97.20;;;;;;1669431;29;20704;-71
2022/10/31 06:29:06;;;;;;;8.10;4.27;;;13.50;97.20;;;;;;1669269;29;20573;-71
2022/10/31 06:29:57;;;;;;;6.93;4.10;;;13.50;97.20;;;;;;1669222;29;20199;-71
2022/10/31 06:30:48;;;;;;;7.37;4.07;;;13.60;97.20;;;;;;1669391;29;20238;-71
2022/10/31 06:31:40;;;;;;;11.18;4.82;;;13.50;97.20;;;;;;1669342;29;20203;-71
2022/10/31 06:32:32;;;;;;;4.72;3.85;;;13.50;97.20;;;;;;1669440;29;20293;-72
2022/10/31 06:33:23;;;;;;;7.63;4.53;;;13.50;97.20;;;;;;1669597;29;20883;-71
2022/10/31 06:34:14;;;;;;;8.03;4.07;;;13.60;97.20;;;;;;1669541;29;20652;-71
2022/10/31 06:35:06;;;;;;;7.68;4.20;;;13.60;97.20;;;;;;1669540;29;20609;-72
2022/10/31 06:35:58;;;;;;;5.15;4.45;;;13.50;97.20;;;;;;1669224;29;20207;-70
2022/10/31 06:36:49;;;;;;;7.22;4.03;;;13.60;97.20;;;;;;1669410;29;20214;-71
2022/10/31 06:37:40;;;;;;;6.40;4.10;;;13.60;97.20;;;;;;1669499;29;20619;-71
2022/10/31 06:38:31;;;;;;;8.73;4.90;;;13.60;97.20;;;;;;1669528;29;20203;-71
2022/10/31 06:39:23;;;;;;;8.47;5.10;;;13.60;97.20;;;;;;1668259;29;20212;-71
2022/10/31 06:40:14;;;;;;;8.30;4.90;;;13.60;97.20;;;;;;1662982;29;20214;-71
2022/10/31 06:41:06;;;;;;;8.10;5.20;;;13.60;97.20;;;;;;1663142;29;20211;-70
2022/10/31 06:41:57;;;;;;;8.88;4.97;;;13.60;97.20;;;;;;1667212;29;20211;-70
2022/10/31 06:42:57;;;;;;;12.27;4.87;;;13.60;97.20;;;;;;1669439;29;20209;-70
2022/10/31 06:43:47;;;;;;;6.95;4.80;;;13.60;97.20;;;;;;1669387;29;20214;-71
2022/10/31 06:44:39;;;;;;;8.83;4.57;;;13.70;97.20;;;;;;1669457;29;20206;-70
2022/10/31 06:45:30;;;;;;;6.63;3.92;;;13.70;97.20;;;;;;1669132;29;20214;-71
2022/10/31 06:46:22;;;;;;;8.20;4.40;;;13.70;97.20;;;;;;1669532;29;20209;-71
2022/10/31 06:47:14;;;;;;;6.82;4.40;;;13.70;97.20;;;;;;1669189;29;20206;-71
2022/10/31 06:48:06;;;;;;;6.32;4.07;;;13.70;97.20;;;;;;1669006;29;20210;-71
2022/10/31 06:48:59;;;;;;;4.53;4.10;;;13.70;97.20;;;;;;1666267;29;20231;-71
2022/10/31 06:49:50;;;;;;;7.70;4.50;;;13.80;97.20;;;;;;1663096;29;20211;-70
2022/10/31 06:50:41;;;;;;;8.48;4.25;;;13.80;97.20;;;;;;1667442;29;20222;-70
2022/10/31 06:51:33;;;;;;;4.03;3.63;;;13.80;97.20;;;;;;1669474;29;20211;-70
2022/10/31 06:52:23;;;;;;;8.43;4.25;;;13.80;97.20;;;;;;1669365;29;20213;-70
2022/10/31 06:53:15;;;;;;;5.53;4.80;;;13.80;97.20;;;;;;1669483;29;20217;-70
2022/10/31 06:54:06;;;;;;;6.35;4.57;;;13.80;97.20;;;;;;1668867;29;20202;-72
2022/10/31 06:54:58;;;;;;;7.40;3.83;;;13.80;97.20;;;;;;1669086;29;20211;-70
2022/10/31 06:55:48;;;;;;;9.13;4.20;;;13.80;97.20;;;;;;1669294;29;20210;-71
2022/10/31 06:56:40;;;;;;;5.33;4.10;;;13.80;97.20;;;;;;1663997;29;20210;-71
2022/10/31 06:57:31;;;;;;;5.47;3.97;;;13.80;97.20;;;;;;1663110;29;20637;-72
2022/10/31 06:58:23;;;;;;;8.63;4.80;;;13.80;97.20;;;;;;1663070;29;20564;-72
2022/10/31 06:59:14;;;;;;;5.45;4.60;;;13.80;97.20;;;;;;1663081;29;20226;-72
2022/10/31 07:00:08;;;;;;;5.18;3.65;;;13.80;97.20;;;;;;1663416;29;20629;-71
2022/10/31 07:01:00;;;;;;;5.57;4.05;;;13.80;97.20;;;;;;1669279;29;20265;-72
2022/10/31 07:01:51;;;;;;;5.63;3.58;;;13.80;97.20;;;;;;1669519;29;20737;-71
2022/10/31 07:02:43;;;;;;;9.48;4.80;;;13.80;97.20;;;;;;1669458;29;20210;-72
2022/10/31 07:03:35;;;;;;;6.35;4.68;;;13.80;97.20;;;;;;1669401;29;20669;-73
2022/10/31 07:04:26;;;;;;;8.48;4.28;;;13.80;97.20;;;;;;1669373;29;20673;-72
2022/10/31 07:05:17;;;;;;;8.47;4.63;;;13.80;97.20;;;;;;1669360;29;20572;-71
2022/10/31 07:06:08;;;;;;;7.65;3.70;;;13.80;97.20;;;;;;1669170;29;20241;-72
2022/10/31 07:07:00;;;;;;;6.60;3.90;;;13.80;97.20;;;;;;1669247;29;20209;-71
2022/10/31 07:07:53;;;;;;;7.30;3.90;;;13.80;97.20;;;;;;1669474;29;20248;-71
2022/10/31 07:08:44;;;;;;;7.57;4.18;;;13.80;97.20;;;;;;1669483;29;20206;-70
2022/10/31 07:09:35;;;;;;;4.78;3.85;;;13.80;97.20;;;;;;1670639;29;20211;-70
2022/10/31 07:10:28;;;;;;;6.20;3.97;;;13.80;97.20;;;;;;1672358;29;20202;-72
2022/10/31 07:11:19;;;;;;;7.95;4.25;;;13.80;97.20;;;;;;1668345;29;20202;-71
2022/10/31 07:12:11;;;;;;;9.77;4.40;;;13.80;97.20;;;;;;1668960;29;20194;-71
2022/10/31 07:13:04;;;;;;;6.28;4.20;;;13.80;97.20;;;;;;1668971;29;20699;-71
2022/10/31 07:13:55;;;;;;;8.13;4.93;;;13.80;97.20;;;;;;1669236;29;20225;-72
2022/10/31 07:14:46;;;;;;;5.97;4.88;;;13.80;97.20;;;;;;1662985;29;20207;-71
2022/10/31 07:15:39;;;;;;;7.93;6.13;;;13.80;97.20;;;;;;1662747;29;20218;-71
2022/10/31 07:16:30;;;;;;;7.85;5.30;;;13.80;97.20;;;;;;1662940;29;20207;-71
2022/10/31 07:17:24;;;;;;;6.93;5.17;;;13.80;97.20;;;;;;1662853;29;20206;-71
2022/10/31 07:18:16;;;;;;;4.53;4.13;;;13.80;97.20;;;;;;1666349;29;20206;-71
2022/10/31 07:19:08;;;;;;;9.25;4.82;;;13.80;97.20;;;;;;1669267;29;20274;-72
2022/10/31 07:19:58;;;;;;;4.80;4.30;;;13.90;97.20;;;;;;1669053;29;20700;-71
2022/10/31 07:20:50;;;;;;;7.13;3.83;;;13.90;97.20;;;;;;1669202;29;20597;-72
2022/10/31 07:21:41;;;;;;;7.60;4.60;;;13.90;97.20;;;;;;1669164;29;20238;-72
2022/10/31 07:22:36;;;;;;;6.50;3.93;;;13.90;97.20;;;;;;1669324;29;20699;-72
2022/10/31 07:23:27;;;;;;;5.53;4.68;;;14.00;97.20;;;;;;1669197;29;20207;-71
2022/10/31 07:24:19;;;;;;;6.30;5.00;;;14.00;97.20;;;;;;1669221;29;20208;-72
2022/10/31 07:25:10;;;;;;;7.05;5.70;;;14.00;97.20;;;;;;1669260;29;20254;-72
2022/10/31 07:26:02;;;;;;;8.52;5.03;;;14.00;97.20;;;;;;1668918;29;20211;-72
2022/10/31 07:26:52;;;;;;;8.80;5.10;;;14.00;97.20;;;;;;1669114;29;20533;-72
2022/10/31 07:27:44;;;;;;;5.60;4.43;;;14.00;97.20;;;;;;1669217;29;20202;-72
2022/10/31 07:28:35;;;;;;;7.88;4.25;;;14.00;97.20;;;;;;1668950;29;20636;-72
2022/10/31 07:29:27;;;;;;;6.60;4.67;;;14.00;97.20;;;;;;1668930;29;20569;-72
2022/10/31 07:30:18;;;;;;;6.50;4.50;;;14.00;97.20;;;;;;1668890;29;20210;-71
2022/10/31 07:31:10;;;;;;;11.18;4.55;;;14.10;97.20;;;;;;1669310;29;20210;-71
2022/10/31 07:32:01;;;;;;;9.98;4.30;;;14.10;97.20;;;;;;1669141;29;20673;-72
2022/10/31 07:32:55;;;;;;;8.93;4.40;;;14.10;97.20;;;;;;1669163;29;20218;-73
2022/10/31 07:33:47;;;;;;;6.20;4.07;;;14.10;97.20;;;;;;1669170;29;20596;-72
2022/10/31 07:34:38;;;;;;;6.97;3.97;;;14.20;97.20;;;;;;1669083;29;20210;-71
2022/10/31 07:35:30;;;;;;;6.78;4.07;;;14.20;97.20;;;;;;1668420;29;20202;-72
2022/10/31 07:36:22;;;;;;;5.57;4.47;;;14.20;97.20;;;;;;1669059;29;20210;-72
2022/10/31 07:37:13;;;;;;;6.63;4.07;;;14.20;97.20;;;;;;1669071;29;20644;-71
2022/10/31 07:38:08;;;;;;;8.43;4.43;;;14.30;97.20;;;;;;1669187;29;20202;-72
2022/10/31 07:39:02;;;;;;;6.95;4.93;;;14.30;97.20;;;;;;1669127;29;20217;-71
2022/10/31 07:39:52;;;;;;;5.85;4.57;;;14.30;97.20;;;;;;1669087;29;20305;-72
2022/10/31 07:40:44;;;;;;;4.80;4.00;;;14.40;97.20;;;;;;1669053;29;20231;-73
2022/10/31 07:41:35;;;;;;;6.35;4.70;;;14.40;97.20;;;;;;1669197;29;20234;-72
2022/10/31 07:42:27;;;;;;;9.70;4.80;;;14.40;97.20;;;;;;1669140;29;20669;-72
2022/10/31 07:43:17;;;;;;;5.28;4.03;;;14.40;97.20;;;;;;1669111;29;20208;-72
2022/10/31 07:44:09;;;;;;;9.43;4.50;;;14.50;97.20;;;;;;1669119;29;20211;-73
2022/10/31 07:45:00;;;;;;;6.97;4.85;;;14.50;97.20;;;;;;1669076;29;20234;-72
2022/10/31 07:45:52;;;;;;;7.50;4.23;;;14.50;97.20;;;;;;1668831;29;20203;-72
2022/10/31 07:46:43;;;;;;;5.32;4.10;;;14.50;97.20;;;;;;1668938;29;20277;-72
2022/10/31 07:47:39;;;;;;;9.63;5.03;;;14.60;97.20;;;;;;1669058;29;20198;-72
2022/10/31 07:48:30;;;;;;;9.05;4.85;;;14.60;97.20;;;;;;1669118;29;20218;-72
2022/10/31 07:49:25;;;;;;;6.37;5.73;;;14.60;97.20;;;;;;1669081;29;20209;-72
2022/10/31 07:50:17;;;;;;;7.45;4.32;;;14.60;97.20;;;;;;1669007;29;20202;-72
2022/10/31 07:51:09;;;;;;;6.65;5.30;;;14.70;97.20;;;;;;1669005;29;20214;-72
2022/10/31 07:51:59;;;;;;;7.15;4.82;;;14.70;97.20;;;;;;1668685;29;20241;-72
2022/10/31 07:53:00;;;;;;;5.77;4.70;;;14.70;97.20;;;;;;1669128;29;20203;-72
2022/10/31 07:53:50;;;;;;;5.78;4.50;;;14.80;97.20;;;;;;1669079;29;20210;-72
2022/10/31 07:54:42;;;;;;;9.83;4.80;;;14.80;97.20;;;;;;1669031;29;20436;-71
2022/10/31 07:55:33;;;;;;;8.48;5.72;;;14.90;97.20;;;;;;1668811;29;20248;-72
2022/10/31 07:56:25;;;;;;;6.30;4.43;;;14.90;97.20;;;;;;1669026;29;20206;-72
2022/10/31 07:57:15;;;;;;;8.38;4.60;;;14.90;97.20;;;;;;1668896;29;20266;-72
2022/10/31 07:58:09;;;;;;;7.60;4.73;;;15.00;97.20;;;;;;1669053;29;20261;-72
2022/10/31 07:58:59;;;;;;;13.20;6.40;;;15.00;97.20;;;;;;1669083;29;20261;-71
2022/10/31 07:59:51;;;;;;;7.70;5.13;;;15.00;97.20;;;;;;1669034;29;20199;-72
2022/10/31 08:00:44;;;;;;;5.55;4.95;;;15.10;97.20;;;;;;1668840;29;20265;-73
2022/10/31 08:01:36;;;;;;;8.52;4.65;;;15.10;97.20;;;;;;1668987;29;20207;-71
2022/10/31 08:02:26;;;;;;;6.35;4.97;;;15.10;97.20;;;;;;1668987;29;20238;-72
2022/10/31 08:03:19;;;;;;;10.60;5.83;;;15.10;97.20;;;;;;1668983;29;20218;-72
2022/10/31 08:04:10;;;;;;;6.97;4.72;;;15.10;97.20;;;;;;1668978;29;20214;-72
2022/10/31 08:05:04;;;;;;;6.50;4.53;;;15.10;97.20;;;;;;1668950;29;20210;-72
2022/10/31 08:05:56;;;;;;;7.05;4.50;;;15.20;97.20;;;;;;1668731;29;20241;-72
2022/10/31 08:06:49;;;;;;;8.13;5.25;;;15.20;97.20;;;;;;1668894;29;20767;-72
2022/10/31 08:07:39;;;;;;;5.45;4.40;;;15.20;97.20;;;;;;1668888;29;20210;-71
2022/10/31 08:08:32;;;;;;;7.87;5.27;;;15.30;97.20;;;;;;1668645;29;20258;-72
2022/10/31 08:09:22;;;;;;;7.90;4.88;;;15.30;97.20;;;;;;1668939;29;20685;-72
2022/10/31 08:10:14;;;;;;;6.93;4.77;;;15.30;97.20;;;;;;1668529;29;20659;-72
2022/10/31 08:11:05;;;;;;;8.98;5.82;;;15.40;97.20;;;;;;1668714;29;20218;-72
2022/10/31 08:11:57;;;;;;;7.77;5.90;;;15.40;97.20;;;;;;1668965;29;20216;-72
2022/10/31 08:12:54;;;;;;;9.23;6.15;;;15.40;97.20;;;;;;1669003;29;20451;-72
2022/10/31 08:13:47;;;;;;;7.80;5.50;;;15.50;97.20;;;;;;1668894;29;20742;-72
2022/10/31 08:14:37;;;;;;;5.93;5.20;;;15.50;97.20;;;;;;1668968;29;20234;-72
2022/10/31 08:15:30;;;;;;;11.10;5.43;;;15.50;97.20;;;;;;1668683;29;20202;-72
2022/10/31 08:16:20;;;;;;;6.60;5.65;;;15.60;97.20;;;;;;1669024;29;20218;-73
2022/10/31 08:17:12;;;;;;;8.57;4.93;;;15.60;97.20;;;;;;1668794;29;20205;-71
2022/10/31 08:18:03;;;;;;;7.60;5.28;;;15.60;97.20;;;;;;1668911;29;20218;-72
2022/10/31 08:18:55;;;;;;;8.33;5.50;;;15.70;97.20;;;;;;1668940;29;20715;-71
2022/10/31 08:19:46;;;;;;;8.00;5.10;;;15.70;97.20;;;;;;1668832;29;20931;-72
2022/10/31 08:20:39;;;;;;;9.27;5.50;;;15.80;97.20;;;;;;1668789;29;20282;-73
2022/10/31 08:21:30;;;;;;;6.43;4.90;;;15.80;97.20;;;;;;1668857;29;20210;-72
2022/10/31 08:22:21;;;;;;;7.23;4.43;;;15.90;97.20;;;;;;1668867;29;20206;-71
2022/10/31 08:23:13;;;;;;;7.25;5.10;;;15.90;97.20;;;;;;1668532;29;20222;-72
2022/10/31 08:24:05;;;;;;;6.20;4.85;;;16.00;97.20;;;;;;1668853;29;20266;-72
2022/10/31 08:24:56;;;;;;;7.90;5.13;;;16.00;97.20;;;;;;1668717;29;20238;-72
2022/10/31 08:25:48;;;;;;;7.10;4.63;;;16.00;97.20;;;;;;1668638;29;20210;-72
2022/10/31 08:26:38;;;;;;;5.10;4.45;;;16.10;97.20;;;;;;1668723;29;20469;-71
2022/10/31 08:27:30;;;;;;;6.87;4.30;;;16.10;97.20;;;;;;1668939;29;20202;-72
2022/10/31 08:28:22;;;;;;;6.18;5.10;;;16.20;97.20;;;;;;1668867;29;20214;-72
2022/10/31 08:29:14;;;;;;;6.40;4.20;;;16.20;97.20;;;;;;1668858;29;20596;-72
2022/10/31 08:30:07;;;;;;;6.75;4.93;;;16.30;97.20;;;;;;1668835;29;20206;-72
2022/10/31 08:30:58;;;;;;;7.00;4.68;;;16.30;97.20;;;;;;1668677;29;20277;-72
2022/10/31 08:31:50;;;;;;;8.40;5.10;;;16.30;97.20;;;;;;1668909;29;20216;-73
2022/10/31 08:32:40;;;;;;;6.45;4.60;;;16.30;97.20;;;;;;1668792;29;20206;-71
2022/10/31 08:33:32;;;;;;;6.67;5.30;;;16.40;97.20;;;;;;1668824;29;20202;-73
2022/10/31 08:34:23;;;;;;;7.43;5.07;;;16.40;97.20;;;;;;1668749;29;20214;-72
2022/10/31 08:35:15;;;;;;;6.53;4.82;;;16.40;97.20;;;;;;1668871;29;20739;-72
2022/10/31 08:36:08;;;;;;;6.72;5.00;;;16.50;97.20;;;;;;1668552;29;20214;-72
2022/10/31 08:36:59;;;;;;;7.50;4.50;;;16.50;97.20;;;;;;1668655;29;20245;-72
2022/10/31 08:37:53;;;;;;;5.97;4.57;;;16.60;97.20;;;;;;1668562;29;20201;-73
2022/10/31 08:38:44;;;;;;;14.35;5.85;;;16.60;97.20;;;;;;1668826;29;20227;-72
2022/10/31 08:39:36;;;;;;;6.63;4.83;;;16.60;97.20;;;;;;1668816;29;20242;-72
2022/10/31 08:40:28;;;;;;;7.10;5.30;;;16.70;97.20;;;;;;1668604;29;20203;-71
2022/10/31 08:41:20;;;;;;;8.02;5.10;;;16.70;97.20;;;;;;1668760;29;20206;-72
2022/10/31 08:42:10;;;;;;;8.80;4.80;;;16.80;97.20;;;;;;1668758;29;20704;-72
2022/10/31 08:43:04;;;;;;;8.37;4.47;;;16.80;97.20;;;;;;1668841;29;20666;-72
2022/10/31 08:43:54;;;;;;;7.00;5.22;;;16.90;97.20;;;;;;1668761;29;20221;-72
2022/10/31 08:44:46;;;;;;;6.50;4.53;;;16.90;97.20;;;;;;1668765;29;20670;-72
2022/10/31 08:45:38;;;;;;;6.95;5.05;;;16.90;97.20;;;;;;1668481;29;20242;-72
2022/10/31 08:46:29;;;;;;;5.22;4.60;;;16.90;97.20;;;;;;1668745;29;20563;-72
2022/10/31 08:47:20;;;;;;;6.30;4.40;;;16.90;97.20;;;;;;1668600;29;20591;-72
2022/10/31 08:48:13;;;;;;;7.07;4.80;;;16.90;97.20;;;;;;1668765;29;20589;-71
2022/10/31 08:49:05;;;;;;;7.60;5.00;;;16.90;97.20;;;;;;1668712;29;20202;-72
2022/10/31 08:49:55;;;;;;;5.35;4.85;;;17.00;97.20;;;;;;1668654;29;20217;-72
2022/10/31 08:50:47;;;;;;;7.50;5.03;;;17.00;97.20;;;;;;1668680;29;20226;-72
2022/10/31 08:51:39;;;;;;;9.18;6.63;;;17.00;97.20;;;;;;1668768;29;20206;-72
2022/10/31 08:52:31;;;;;;;9.88;7.47;;;17.00;97.20;;;;;;1668827;29;20206;-72
2022/10/31 08:53:22;;;;;;;11.23;6.75;;;17.10;97.20;;;;;;1668642;29;20265;-73
2022/10/31 08:54:14;;;;;;;8.67;6.37;;;17.10;97.20;;;;;;1668545;29;20207;-72
2022/10/31 08:55:05;;;;;;;9.13;6.40;;;17.10;97.20;;;;;;1668611;29;20463;-71
2022/10/31 08:55:57;;;;;;;7.22;6.53;;;17.10;97.20;;;;;;1668434;29;20657;-72
2022/10/31 08:56:53;;;;;;;8.63;6.30;;;17.10;97.20;;;;;;1668605;29;20602;-72
2022/10/31 08:57:44;;;;;;;10.43;6.65;;;17.10;97.20;;;;;;1668652;29;20203;-72
2022/10/31 08:58:36;;;;;;;7.40;6.22;;;17.10;97.20;;;;;;1668769;29;20241;-72
2022/10/31 08:59:27;;;;;;;6.90;5.30;;;17.20;97.20;;;;;;1668608;29;20210;-72
2022/10/31 09:00:18;;;;;;;14.10;6.37;;;17.20;97.20;;;;;;1668586;29;20198;-72
2022/10/31 09:01:09;;;;;;;8.90;5.65;;;17.20;97.20;;;;;;1668621;29;20281;-71
2022/10/31 09:02:01;;;;;;;9.50;6.67;;;17.30;97.20;;;;;;1668697;29;20206;-73
2022/10/31 09:02:56;;;;;;;7.32;5.35;;;17.30;97.20;;;;;;1668657;29;20206;-72
2022/10/31 09:03:48;;;;;;;7.22;5.85;;;17.30;97.20;;;;;;1668643;29;20214;-71
2022/10/31 09:04:39;;;;;;;7.95;6.25;;;17.30;97.20;;;;;;1668629;29;20697;-72
2022/10/31 09:05:31;;;;;;;8.80;5.20;;;17.30;97.20;;;;;;1668499;29;20551;-71
2022/10/31 09:06:21;;;;;;;8.02;5.63;;;17.40;97.20;;;;;;1668587;29;20213;-71
2022/10/31 09:07:14;;;;;;;6.93;5.23;;;17.40;97.20;;;;;;1668533;29;20210;-72
2022/10/31 09:08:06;;;;;;;7.00;5.50;;;17.40;97.20;;;;;;1668627;29;20210;-72
2022/10/31 09:08:58;;;;;;;5.80;5.20;;;17.50;97.20;;;;;;1668590;29;20206;-72
2022/10/31 09:09:49;;;;;;;8.02;5.90;;;17.50;97.20;;;;;;1668639;29;20222;-73
2022/10/31 09:10:41;;;;;;;8.60;5.93;;;17.60;97.20;;;;;;1668519;29;20238;-72
2022/10/31 09:11:32;;;;;;;5.75;5.13;;;17.60;97.20;;;;;;1668375;29;20728;-73
2022/10/31 09:12:24;;;;;;;8.83;5.63;;;17.70;97.20;;;;;;1668616;29;20654;-72
2022/10/31 09:13:18;;;;;;;9.23;5.13;;;17.70;97.20;;;;;;1668548;29;20206;-72
2022/10/31 09:14:09;;;;;;;10.98;6.43;;;17.70;97.20;;;;;;1668640;29;20308;-72
2022/10/31 09:15:01;;;;;;;9.23;5.30;;;17.80;97.20;;;;;;1668567;29;20210;-71
2022/10/31 09:15:53;;;;;;;7.32;5.80;;;17.80;97.20;;;;;;1668404;29;20619;-72
2022/10/31 09:16:44;;;;;;;6.32;5.13;;;17.90;97.20;;;;;;1668480;29;20237;-72
2022/10/31 09:17:35;;;;;;;6.33;5.70;;;17.90;97.20;;;;;;1668660;29;20206;-72
2022/10/31 09:18:27;;;;;;;6.53;5.93;;;17.90;97.20;;;;;;1668555;29;20210;-71
2022/10/31 09:19:19;;;;;;;7.93;5.57;;;18.00;97.20;;;;;;1668529;29;20294;-72
2022/10/31 09:20:11;;;;;;;7.25;5.50;;;18.00;97.20;;;;;;1668557;29;20210;-72
2022/10/31 09:21:03;;;;;;;6.20;5.60;;;18.00;97.20;;;;;;1668457;29;20286;-71
2022/10/31 09:21:54;;;;;;;7.97;6.03;;;18.10;97.20;;;;;;1668257;29;20226;-72
2022/10/31 09:22:47;;;;;;;11.43;6.20;;;18.10;97.20;;;;;;1668112;29;20221;-72
2022/10/31 09:23:39;;;;;;;7.20;5.35;;;18.20;97.20;;;;;;1668566;29;20828;-71
2022/10/31 09:24:30;;;;;;;7.38;5.40;;;18.20;97.20;;;;;;1668604;29;20206;-71
2022/10/31 09:25:21;;;;;;;7.53;5.20;;;18.30;97.20;;;;;;1668383;29;20209;-74
2022/10/31 09:26:12;;;;;;;7.63;4.97;;;18.30;97.20;;;;;;1668580;29;20262;-72
2022/10/31 09:27:04;;;;;;;9.57;5.63;;;18.30;97.20;;;;;;1668393;29;20210;-72
2022/10/31 09:27:57;;;;;;;6.35;5.10;;;18.30;97.20;;;;;;1668259;29;20202;-73
2022/10/31 09:28:48;;;;;;;6.53;5.30;;;18.40;97.20;;;;;;1668596;29;20209;-72
2022/10/31 09:29:39;;;;;;;8.35;4.90;;;18.40;97.20;;;;;;1668612;29;20234;-72
2022/10/31 09:30:33;;;;;;;8.93;6.27;;;18.40;97.20;;;;;;1668411;29;20213;-72
2022/10/31 09:31:25;;;;;;;6.18;5.32;;;18.40;97.20;;;;;;1668634;29;20237;-72
2022/10/31 09:32:15;;;;;;;6.80;5.47;;;18.40;97.20;;;;;;1668517;29;20215;-72
2022/10/31 09:33:10;;;;;;;13.57;5.93;;;18.40;97.20;;;;;;1668505;29;20206;-72
2022/10/31 09:34:01;;;;;;;6.78;4.45;;;18.40;97.20;;;;;;1668480;29;20234;-72
2022/10/31 09:34:53;;;;;;;5.05;4.63;;;18.40;97.20;;;;;;1668537;29;20238;-72
2022/10/31 09:35:44;;;;;;;6.93;4.65;;;18.40;97.20;;;;;;1668242;29;20237;-72
2022/10/31 09:36:36;;;;;;;10.23;5.03;;;18.40;97.20;;;;;;1668525;29;20213;-72
2022/10/31 09:37:26;;;;;;;10.25;5.78;;;18.40;97.20;;;;;;1668462;29;20223;-72
2022/10/31 09:38:23;;;;;;;9.10;5.97;;;18.40;97.20;;;;;;1668570;29;20210;-73
2022/10/31 09:39:13;;;;;;;6.30;4.80;;;18.40;97.20;;;;;;1668544;29;20218;-72
2022/10/31 09:40:06;;;;;;;8.30;4.93;;;18.40;97.20;;;;;;1668510;29;20206;-71
2022/10/31 09:41:07;;;;;;;9.23;5.55;;;18.40;97.20;;;;;;1668303;29;20269;-72
2022/10/31 09:42:09;;;;;;;10.00;5.70;;;18.50;97.20;;;;;;1668454;29;20249;-72
2022/10/31 09:43:08;;;;;;;8.38;5.35;;;18.50;97.20;;;;;;1668498;29;20222;-72
2022/10/31 09:44:08;;;;;;;9.63;5.65;;;18.50;97.20;;;;;;1668605;29;20256;-72
2022/10/31 09:45:07;;;;;;;7.45;5.10;;;18.60;97.20;;;;;;1668239;29;20693;-72
2022/10/31 09:46:05;;;;;;;6.28;5.25;;;18.60;97.20;;;;;;1668059;29;20251;-72
2022/10/31 09:47:02;;;;;;;9.00;5.43;;;18.60;97.20;;;;;;1668358;29;20238;-73
2022/10/31 09:48:08;;;;;;;5.90;5.30;;;18.60;97.20;;;;;;1668523;29;20574;-73
2022/10/31 09:49:23;;;;;;;7.13;5.40;;;18.60;97.20;;;;;;1668475;29;20249;-73
2022/10/31 09:50:19;;;;;;;7.95;5.45;;;18.60;97.20;;;;;;1668450;29;20677;-72
2022/10/31 09:51:14;;;;;;;9.63;5.50;;;18.70;97.20;;;;;;1668546;29;20570;-73
2022/10/31 09:52:12;;;;;;;9.38;4.85;;;18.70;97.20;;;;;;1668562;29;20605;-72
2022/10/31 09:53:12;;;;;;;5.13;4.63;;;18.70;97.20;;;;;;1668532;29;20620;-71
2022/10/31 09:54:11;;;;;;;6.82;5.25;;;18.70;97.20;;;;;;1668537;29;20218;-72
2022/10/31 09:55:09;;;;;;;8.77;4.90;;;18.80;97.20;;;;;;1668466;29;20701;-72
2022/10/31 09:56:01;;;;;;;8.25;5.05;;;18.80;97.20;;;;;;1668243;29;20697;-72
2022/10/31 09:56:53;;;;;;;8.73;5.55;;;18.90;97.20;;;;;;1668376;29;20684;-72
2022/10/31 09:57:45;;;;;;;7.75;5.22;;;18.90;97.20;;;;;;1668416;29;20235;-73
2022/10/31 09:58:43;;;;;;;7.13;5.50;;;19.00;97.20;;;;;;1668410;29;20214;-72
2022/10/31 09:59:37;;;;;;;11.40;5.20;;;19.00;97.20;;;;;;1668525;29;20669;-72
2022/10/31 10:00:29;;;;;;;7.55;5.72;;;19.10;97.20;;;;;;1668393;29;20575;-73
2022/10/31 10:01:31;;;;;;;13.48;5.78;;;19.10;97.20;;;;;;1668387;29;20622;-72
2022/10/31 10:02:27;;;;;;;7.63;5.80;;;19.10;97.20;;;;;;1662138;29;20208;-72
2022/10/31 10:03:28;;;;;;;9.18;5.72;;;19.20;97.20;;;;;;1662235;29;20214;-72
2022/10/31 10:04:33;;;;;;;13.85;6.15;;;19.20;97.20;;;;;;1662147;29;20204;-72
2022/10/31 10:05:32;;;;;;;8.43;6.30;;;19.30;97.20;;;;;;1661957;29;20219;-72
2022/10/31 10:06:28;;;;;;;8.65;6.25;;;19.30;97.20;;;;;;1662253;29;20234;-72
2022/10/31 10:07:26;;;;;;;10.02;6.85;;;19.40;97.20;;;;;;1662029;29;20207;-72
2022/10/31 10:08:21;;;;;;;22.30;6.55;;;19.50;97.20;;;;;;1662251;29;20543;-72
2022/10/31 10:09:13;;;;;;;11.25;6.55;;;19.50;97.20;;;;;;1662247;29;20671;-72
2022/10/31 10:10:14;;;;;;;10.32;6.38;;;19.50;97.20;;;;;;1662162;29;20223;-72
2022/10/31 10:11:20;;;;;;;11.93;6.78;;;19.60;97.20;;;;;;1662243;29;20635;-72
2022/10/31 10:12:19;;;;;;;8.73;6.10;;;19.60;97.20;;;;;;1662214;29;20213;-72
2022/10/31 10:13:42;;;;;;;12.20;7.25;;;19.70;97.20;;;;;;1662171;29;20235;-72
2022/10/31 10:14:53;;;;;;;10.75;6.45;;;19.70;97.20;;;;;;1648838;29;20238;-72
2022/10/31 10:16:03;;;;;;;8.73;6.90;;;19.80;97.20;;;;;;1659452;29;20219;-72
2022/10/31 10:17:10;;;;;;;13.40;6.93;;;19.80;97.20;;;;;;1662077;29;20246;-72
2022/10/31 10:18:11;;;;;;;11.30;6.18;;;19.90;97.20;;;;;;1662208;29;20235;-72
2022/10/31 10:19:16;;;;;;;10.10;6.82;;;19.90;97.20;;;;;;1668449;29;20203;-72
2022/10/31 10:20:25;;;;;;;13.80;6.40;;;19.90;97.20;;;;;;1668458;29;20241;-72
2022/10/31 10:21:30;;;;;;;7.10;5.50;;;19.90;97.20;;;;;;1668380;29;20241;-72
2022/10/31 10:22:32;;;;;;;7.10;6.38;;;19.90;97.20;;;;;;1668442;29;20211;-72
2022/10/31 10:23:35;;;;;;;13.50;6.70;;;19.90;97.20;;;;;;1668398;29;20203;-72
2022/10/31 10:24:43;;;;;;;7.90;5.78;;;19.90;97.20;;;;;;1668382;29;20206;-72
2022/10/31 10:25:39;;;;;;;6.05;5.32;;;19.80;97.20;;;;;;1668142;29;20218;-72
2022/10/31 10:26:37;;;;;;;11.38;6.22;;;19.80;97.20;;;;;;1668474;29;20286;-71
2022/10/31 10:27:50;;;;;;;12.07;6.63;;;19.80;97.20;;;;;;1668481;29;20240;-71
2022/10/31 10:28:45;;;;;;;16.20;6.90;;;19.70;97.20;;;;;;1668335;29;20239;-72
2022/10/31 10:29:43;;;;;;;12.63;6.70;;;19.70;97.20;;;;;;1668380;29;20211;-71
2022/10/31 10:30:40;;;;;;;10.15;6.30;;;19.70;97.20;;;;;;1668262;29;20288;-72
2022/10/31 10:31:36;;;;;;;10.40;6.50;;;19.60;97.20;;;;;;1668366;29;20226;-71
2022/10/31 10:32:29;;;;;;;9.95;6.88;;;19.60;97.20;;;;;;1668395;29;20586;-72
2022/10/31 10:33:24;;;;;;;8.95;6.25;;;19.60;97.20;;;;;;1668331;29;20239;-71
2022/10/31 10:34:22;;;;;;;8.98;6.57;;;19.50;97.20;;;;;;1669635;29;20214;-72
2022/10/31 10:35:22;;;;;;;10.00;6.70;;;19.50;97.20;;;;;;1669043;29;20207;-71
2022/10/31 10:36:18;;;;;;;8.45;6.70;;;19.50;97.20;;;;;;1669093;29;20218;-71
2022/10/31 10:37:19;;;;;;;12.65;6.57;;;19.60;97.20;;;;;;1669034;29;20222;-71